Terminal Aerodrome Forecast
Issued by NWS

Home | Current Version | Previous Version | Graphics & Text | Print | Product List | Glossary On
Versions: 1 2 3 4 5 6 7 8 9 10 11 12 13 14 15 16
000
FTUS43 KUNR 241700
TAFGCC
TAF
KGCC 241730Z 2418/2518 31015G25KT P6SM SCT050
     FM242200 35010KT P6SM SCT050 OVC120
      TEMPO 2422/2502 -SHRA BKN025=

USA.gov is the U.S. government's official web portal to all federal, state and local government web resources and services.